createdAt,value
2022-09-03T00:01:12.572Z,15.40
2022-09-03T00:03:45.313Z,15.40
2022-09-03T00:06:17.554Z,15.40
2022-09-03T00:08:46.687Z,15.40
2022-09-03T00:11:20.801Z,15.40
2022-09-03T00:14:04.945Z,15.50
2022-09-03T00:16:45.705Z,15.50
2022-09-03T00:19:12.926Z,15.50
2022-09-03T00:21:49.435Z,15.40
2022-09-03T00:24:18.155Z,15.40
2022-09-03T00:26:47.399Z,15.40
2022-09-03T00:29:33.454Z,15.40
2022-09-03T00:32:05.026Z,15.40
2022-09-03T00:34:41.334Z,15.40
2022-09-03T00:37:12.387Z,15.40
2022-09-03T00:39:42.975Z,15.30
2022-09-03T00:42:28.794Z,15.30
2022-09-03T00:45:17.052Z,15.30
2022-09-03T00:48:00.371Z,15.20
2022-09-03T00:51:03.746Z,15.20
2022-09-03T00:53:52.086Z,15.00
2022-09-03T00:56:28.415Z,14.80
2022-09-03T00:58:55.636Z,14.90
2022-09-03T01:01:30.619Z,14.90
2022-09-03T01:04:21.577Z,15.00
2022-09-03T01:06:48.787Z,15.00
2022-09-03T01:09:24.223Z,14.80
2022-09-03T01:12:03.664Z,14.80
2022-09-03T01:14:49.015Z,14.80
2022-09-03T01:17:19.050Z,14.80
2022-09-03T01:19:52.378Z,14.70
2022-09-03T01:22:57.451Z,14.50
2022-09-03T01:25:32.328Z,14.40
2022-09-03T01:27:59.477Z,14.50
2022-09-03T01:30:26.619Z,14.50
2022-09-03T01:33:11.335Z,14.50
2022-09-03T01:35:49.036Z,14.50
2022-09-03T01:38:44.699Z,14.40
2022-09-03T01:41:30.589Z,14.40
2022-09-03T01:44:34.589Z,14.40
2022-09-03T01:47:37.922Z,14.30
2022-09-03T01:50:23.972Z,14.30
2022-09-03T01:53:15.492Z,14.30
2022-09-03T01:56:11.699Z,14.30
2022-09-03T01:58:51.906Z,14.20
2022-09-03T02:01:29.489Z,14.10
2022-09-03T02:03:59.894Z,14.20
2022-09-03T02:06:27.899Z,14.20
2022-09-03T02:08:55.120Z,14.20
2022-09-03T02:11:22.435Z,14.20
2022-09-03T02:13:54.924Z,14.10
2022-09-03T02:16:24.293Z,14.00
2022-09-03T02:18:56.188Z,14.00
2022-09-03T02:21:24.584Z,14.00
2022-09-03T02:23:51.857Z,13.90
2022-09-03T02:26:21.615Z,13.80
2022-09-03T02:28:49.067Z,13.70
2022-09-03T02:31:16.370Z,13.70
2022-09-03T02:33:45.082Z,13.80
2022-09-03T02:36:13.600Z,13.80
2022-09-03T02:38:44.283Z,13.70
2022-09-03T02:41:13.201Z,13.50
2022-09-03T02:43:44.730Z,13.60
2022-09-03T02:46:23.433Z,13.60
2022-09-03T02:48:50.760Z,13.70
2022-09-03T02:51:17.981Z,13.50
2022-09-03T02:53:45.287Z,13.40
2022-09-03T02:56:12.605Z,13.40
2022-09-03T02:58:39.847Z,13.50
2022-09-03T03:01:07.137Z,13.50
2022-09-03T03:03:34.471Z,13.30
2022-09-03T03:06:02.716Z,13.20
2022-09-03T03:08:30.328Z,13.10
2022-09-03T03:10:58.843Z,13.10
2022-09-03T03:13:26.956Z,13.20
2022-09-03T03:16:02.466Z,13.30
2022-09-03T03:18:29.876Z,13.30
2022-09-03T03:20:57.547Z,13.30
2022-09-03T03:23:24.775Z,13.30
2022-09-03T03:25:52.018Z,13.20
2022-09-03T03:28:20.527Z,13.10
2022-09-03T03:30:48.864Z,13.20
2022-09-03T03:33:16.291Z,13.20
2022-09-03T03:35:43.631Z,13.20
2022-09-03T03:38:10.916Z,13.20
2022-09-03T03:40:39.186Z,13.20
2022-09-03T03:43:06.433Z,13.20
2022-09-03T03:45:34.058Z,13.10
2022-09-03T03:48:01.347Z,13.00
2022-09-03T03:50:28.583Z,13.00
2022-09-03T03:52:58.982Z,13.00
2022-09-03T03:55:27.124Z,13.10
2022-09-03T03:57:54.518Z,13.10
2022-09-03T04:00:21.815Z,13.10
2022-09-03T04:02:52.637Z,13.10
2022-09-03T04:05:23.016Z,13.10
2022-09-03T04:07:50.574Z,13.10
2022-09-03T04:10:17.788Z,13.10
2022-09-03T04:12:45.066Z,13.10
2022-09-03T04:15:12.360Z,13.00
2022-09-03T04:17:39.800Z,13.00
2022-09-03T04:20:07.213Z,13.00
2022-09-03T04:22:34.492Z,13.00
2022-09-03T04:25:01.727Z,13.00
2022-09-03T04:27:28.935Z,12.90
2022-09-03T04:29:56.174Z,13.00
2022-09-03T04:32:42.090Z,13.10
2022-09-03T04:35:09.591Z,13.20
2022-09-03T04:37:37.043Z,13.20
2022-09-03T04:40:04.975Z,13.30
2022-09-03T04:42:32.251Z,13.30
2022-09-03T04:44:59.539Z,13.30
2022-09-03T04:47:28.114Z,13.40
2022-09-03T04:49:55.465Z,13.40
2022-09-03T04:52:22.723Z,13.50
2022-09-03T04:54:50.466Z,13.40
2022-09-03T04:57:17.947Z,13.50
2022-09-03T04:59:45.366Z,13.50
2022-09-03T05:02:12.874Z,13.50
2022-09-03T05:04:40.162Z,13.40
2022-09-03T05:07:07.570Z,13.50
2022-09-03T05:09:34.940Z,13.50
2022-09-03T05:12:02.290Z,13.60
2022-09-03T05:14:29.507Z,13.70
2022-09-03T05:16:56.799Z,13.80
2022-09-03T05:19:24.023Z,13.60
2022-09-03T05:21:51.256Z,13.50
2022-09-03T05:24:18.654Z,13.40
2022-09-03T05:26:45.876Z,13.30
2022-09-03T05:29:14.266Z,13.30
2022-09-03T05:31:41.520Z,13.30
2022-09-03T05:34:10.015Z,13.20
2022-09-03T05:36:38.129Z,13.30
2022-09-03T05:39:05.643Z,13.50
2022-09-03T05:41:34.115Z,13.50
2022-09-03T05:44:01.703Z,13.60
2022-09-03T05:46:33.197Z,13.60
2022-09-03T05:49:05.387Z,13.60
2022-09-03T05:51:32.926Z,13.80
2022-09-03T05:54:00.447Z,14.00
2022-09-03T05:56:29.045Z,14.00
2022-09-03T05:59:01.577Z,14.20
2022-09-03T06:01:33.867Z,14.30
2022-09-03T06:04:02.931Z,14.30
2022-09-03T06:06:31.588Z,14.50
2022-09-03T06:09:16.754Z,14.60
2022-09-03T06:11:44.303Z,14.60
2022-09-03T06:14:14.321Z,14.40
2022-09-03T06:16:46.210Z,14.40
2022-09-03T06:19:14.231Z,14.60
2022-09-03T06:21:44.910Z,14.70
2022-09-03T06:24:16.798Z,14.80
2022-09-03T06:26:45.007Z,14.70
2022-09-03T06:29:12.759Z,14.70
2022-09-03T06:31:40.079Z,14.70
2022-09-03T06:34:07.459Z,14.60
2022-09-03T06:36:34.711Z,14.60
2022-09-03T06:39:02.040Z,14.70
2022-09-03T06:41:31.759Z,14.60
2022-09-03T06:44:03.416Z,14.40
2022-09-03T06:46:32.313Z,14.40
2022-09-03T06:48:59.586Z,14.30
2022-09-03T06:51:27.847Z,14.20
2022-09-03T06:53:59.444Z,14.20
2022-09-03T06:56:27.025Z,14.10
2022-09-03T06:58:56.205Z,14.10
2022-09-03T07:01:28.284Z,14.20
2022-09-03T07:03:56.686Z,14.30
2022-09-03T07:06:28.360Z,14.30
2022-09-03T07:08:57.959Z,14.40
2022-09-03T07:11:27.459Z,14.30
2022-09-03T07:13:55.900Z,14.30
2022-09-03T07:16:24.066Z,14.30
2022-09-03T07:18:51.518Z,14.20
2022-09-03T07:21:20.561Z,14.30
2022-09-03T07:23:48.396Z,14.40
2022-09-03T07:26:23.838Z,14.50
2022-09-03T07:28:51.219Z,14.60
2022-09-03T07:31:25.788Z,14.60
2022-09-03T07:33:56.765Z,14.60
2022-09-03T07:36:25.014Z,14.60
2022-09-03T07:38:55.606Z,14.60
2022-09-03T07:41:28.892Z,14.50
2022-09-03T07:43:57.131Z,14.40
2022-09-03T07:46:26.527Z,14.50
2022-09-03T07:48:54.819Z,14.70
2022-09-03T07:51:26.438Z,14.80
2022-09-03T07:53:54.946Z,15.00
2022-09-03T07:56:22.279Z,14.90
2022-09-03T07:58:49.578Z,15.00
2022-09-03T08:01:19.147Z,14.90
2022-09-03T08:03:47.783Z,14.90
2022-09-03T08:06:15.506Z,15.00
2022-09-03T08:08:45.167Z,15.10
2022-09-03T08:11:16.905Z,15.20
2022-09-03T08:13:45.589Z,15.40
2022-09-03T08:16:13.605Z,15.60
2022-09-03T08:18:40.850Z,15.80
2022-09-03T08:21:14.851Z,15.80
2022-09-03T08:23:43.238Z,15.70
2022-09-03T08:26:10.649Z,15.90
2022-09-03T08:28:38.032Z,16.20
2022-09-03T08:31:12.607Z,16.40
2022-09-03T08:33:43.969Z,16.70
2022-09-03T08:36:25.403Z,16.90
2022-09-03T08:38:55.089Z,16.90
2022-09-03T08:41:31.480Z,17.00
2022-09-03T08:44:37.489Z,17.20
2022-09-03T08:47:13.542Z,17.50
2022-09-03T08:50:05.352Z,17.50
2022-09-03T08:52:59.430Z,17.70
2022-09-03T08:55:51.462Z,17.70
2022-09-03T08:58:19.398Z,18.00
2022-09-03T09:00:49.782Z,18.10
2022-09-03T09:03:25.986Z,18.40
2022-09-03T09:06:11.498Z,18.70
2022-09-03T09:09:11.080Z,18.90
2022-09-03T09:11:57.135Z,18.90
2022-09-03T09:14:35.756Z,19.10
2022-09-03T09:17:14.907Z,19.20
2022-09-03T09:20:10.044Z,19.20
2022-09-03T09:22:56.554Z,19.40
2022-09-03T09:25:26.195Z,19.70
2022-09-03T09:27:56.508Z,20.00
2022-09-03T09:30:23.723Z,20.10
2022-09-03T09:32:51.418Z,20.00
2022-09-03T09:35:18.906Z,20.20
2022-09-03T09:37:49.981Z,20.40
2022-09-03T09:40:27.485Z,20.40
2022-09-03T09:43:16.166Z,20.30
2022-09-03T09:45:44.967Z,20.20
2022-09-03T09:48:24.010Z,20.30
2022-09-03T09:50:51.953Z,20.30
2022-09-03T09:53:21.524Z,20.30
2022-09-03T09:55:50.454Z,20.20
2022-09-03T09:58:19.864Z,20.30
2022-09-03T10:00:59.814Z,20.30
2022-09-03T10:03:29.759Z,20.60
2022-09-03T10:06:26.058Z,20.60
2022-09-03T10:09:05.115Z,20.60
2022-09-03T10:11:32.419Z,20.50
2022-09-03T10:13:59.626Z,20.60
2022-09-03T10:16:31.995Z,20.50
2022-09-03T10:19:07.425Z,20.60
2022-09-03T10:22:03.077Z,21.00
2022-09-03T10:24:58.261Z,20.90
2022-09-03T10:27:25.900Z,21.20
2022-09-03T10:29:53.445Z,21.70
2022-09-03T10:32:38.933Z,21.60
2022-09-03T10:35:20.379Z,21.70
2022-09-03T10:37:50.302Z,21.60
2022-09-03T10:40:49.980Z,21.70
2022-09-03T10:43:32.577Z,22.00
2022-09-03T10:46:09.476Z,22.20
2022-09-03T10:49:07.276Z,22.20
2022-09-03T10:51:42.082Z,22.60
2022-09-03T10:54:36.296Z,22.80
2022-09-03T10:57:21.557Z,22.70
2022-09-03T11:00:10.465Z,22.70
2022-09-03T11:02:57.044Z,22.50
2022-09-03T11:05:31.459Z,22.50
2022-09-03T11:08:02.959Z,22.50
2022-09-03T11:10:32.016Z,22.50
2022-09-03T11:13:21.107Z,22.60
2022-09-03T11:15:53.837Z,22.40
2022-09-03T11:18:45.553Z,22.40
2022-09-03T11:21:14.054Z,22.70
2022-09-03T11:23:45.713Z,22.90
2022-09-03T11:26:15.782Z,22.70
2022-09-03T11:29:04.942Z,22.70
2022-09-03T11:31:35.041Z,22.60
2022-09-03T11:34:23.413Z,22.30
2022-09-03T11:37:19.845Z,22.50
2022-09-03T11:40:07.833Z,22.80
2022-09-03T11:42:41.104Z,23.00
2022-09-03T11:45:26.852Z,23.40
2022-09-03T11:47:54.372Z,23.20
2022-09-03T11:50:23.274Z,23.20
2022-09-03T11:53:15.027Z,23.30
2022-09-03T11:55:55.649Z,23.50
2022-09-03T11:58:34.675Z,23.30
2022-09-03T12:01:03.295Z,23.20
2022-09-03T12:03:38.431Z,23.30
2022-09-03T12:06:23.240Z,23.60
2022-09-03T12:08:56.309Z,23.80
2022-09-03T12:11:44.508Z,23.90
2022-09-03T12:14:42.443Z,24.10
2022-09-03T12:17:09.657Z,24.20
2022-09-03T12:19:42.485Z,24.30
2022-09-03T12:22:16.703Z,24.40
2022-09-03T12:24:44.471Z,24.40
2022-09-03T12:27:32.815Z,24.50
2022-09-03T12:30:01.611Z,24.60
2022-09-03T12:32:37.060Z,24.50
2022-09-03T12:38:18.258Z,24.60
2022-09-03T12:43:50.084Z,25.00
2022-09-03T12:46:18.170Z,24.80
2022-09-03T12:52:03.144Z,24.70
2022-09-03T12:54:32.723Z,24.40
2022-09-03T12:56:59.963Z,24.10
2022-09-03T12:59:28.427Z,24.20
2022-09-03T13:01:57.954Z,24.20
2022-09-03T13:04:30.086Z,24.40
2022-09-03T13:07:04.329Z,24.60
2022-09-03T13:09:33.534Z,24.60
2022-09-03T13:12:04.748Z,24.60
2022-09-03T13:14:44.713Z,24.60
2022-09-03T13:17:18.549Z,24.50
2022-09-03T13:19:49.393Z,24.20
2022-09-03T13:22:37.790Z,24.10
2022-09-03T13:25:31.442Z,24.00
2022-09-03T13:28:00.552Z,23.90
2022-09-03T13:30:53.564Z,23.80
2022-09-03T13:33:23.661Z,23.80
2022-09-03T13:36:03.840Z,23.70
2022-09-03T13:38:43.262Z,23.70
2022-09-03T13:41:36.502Z,23.70
2022-09-03T13:44:09.171Z,23.70
2022-09-03T13:46:40.515Z,23.50
2022-09-03T13:49:33.223Z,23.40
2022-09-03T13:52:01.851Z,23.40
2022-09-03T13:54:48.738Z,23.20
2022-09-03T13:57:41.067Z,23.10
2022-09-03T14:00:13.282Z,23.00
2022-09-03T14:02:51.491Z,22.90
2022-09-03T14:05:56.328Z,22.90
2022-09-03T14:08:59.121Z,22.90
2022-09-03T14:12:17.428Z,22.80
2022-09-03T14:14:50.874Z,22.60
2022-09-03T14:17:39.047Z,22.50
2022-09-03T14:20:24.810Z,22.40
2022-09-03T14:23:13.775Z,21.80
2022-09-03T14:25:43.804Z,19.60
2022-09-03T14:28:44.187Z,17.30
2022-09-03T14:31:17.420Z,16.30
2022-09-03T14:33:56.718Z,16.10
2022-09-03T14:36:30.167Z,15.90
2022-09-03T14:39:16.340Z,15.80
2022-09-03T14:42:04.605Z,15.70
2022-09-03T14:44:44.267Z,15.50
2022-09-03T14:47:24.258Z,15.40
2022-09-03T14:50:06.516Z,15.30
2022-09-03T14:52:45.367Z,15.30
2022-09-03T14:55:36.659Z,15.40
2022-09-03T14:58:03.863Z,15.60
2022-09-03T15:00:52.600Z,15.50
2022-09-03T15:03:33.508Z,15.50
2022-09-03T15:06:31.541Z,15.60
2022-09-03T15:09:15.638Z,15.70
2022-09-03T15:12:27.647Z,15.80
2022-09-03T15:15:03.971Z,15.90
2022-09-03T15:17:35.119Z,15.90
2022-09-03T15:20:05.125Z,15.90
2022-09-03T15:23:03.083Z,15.80
2022-09-03T15:26:08.459Z,15.70
2022-09-03T15:28:47.588Z,15.70
2022-09-03T15:31:35.153Z,15.80
2022-09-03T15:34:32.467Z,15.90
2022-09-03T15:37:01.830Z,15.90
2022-09-03T15:39:34.438Z,15.90
2022-09-03T15:42:07.817Z,15.90
2022-09-03T15:44:45.672Z,15.90
2022-09-03T15:47:14.657Z,15.90
2022-09-03T15:50:02.291Z,15.90
2022-09-03T15:52:56.743Z,16.10
2022-09-03T15:55:40.851Z,16.10
2022-09-03T15:58:34.487Z,16.20
2022-09-03T16:01:04.912Z,16.10
2022-09-03T16:03:46.869Z,16.10
2022-09-03T16:06:57.931Z,16.10
2022-09-03T16:09:25.664Z,16.30
2022-09-03T16:12:21.144Z,16.40
2022-09-03T16:14:55.951Z,16.90
2022-09-03T16:18:09.154Z,17.20
2022-09-03T16:21:03.399Z,17.40
2022-09-03T16:23:45.676Z,17.60
2022-09-03T16:26:33.590Z,17.70
2022-09-03T16:29:01.535Z,17.70
2022-09-03T16:31:34.980Z,17.70
2022-09-03T16:34:18.629Z,17.70
2022-09-03T16:36:57.963Z,17.80
2022-09-03T16:39:28.037Z,17.90
2022-09-03T16:42:10.566Z,17.90
2022-09-03T16:44:51.270Z,17.90
2022-09-03T16:47:45.478Z,18.00
2022-09-03T16:50:27.318Z,18.20
2022-09-03T16:53:22.568Z,18.60
2022-09-03T16:56:04.838Z,19.10
2022-09-03T16:58:50.657Z,19.60
2022-09-03T17:01:26.157Z,20.20
2022-09-03T17:04:22.390Z,20.80
2022-09-03T17:06:58.678Z,21.80
2022-09-03T17:09:58.967Z,21.30
2022-09-03T17:12:39.399Z,21.00
2022-09-03T17:15:12.413Z,20.60
2022-09-03T17:17:45.751Z,19.90
2022-09-03T17:20:21.547Z,19.40
2022-09-03T17:23:12.399Z,18.70
2022-09-03T17:25:40.423Z,18.20
2022-09-03T17:28:24.249Z,18.00
2022-09-03T17:31:34.151Z,17.90
2022-09-03T17:34:27.248Z,17.80
2022-09-03T17:37:12.571Z,17.50
2022-09-03T17:39:48.772Z,17.20
2022-09-03T17:42:40.073Z,17.10
2022-09-03T17:45:47.260Z,17.00
2022-09-03T17:48:23.571Z,17.00
2022-09-03T17:51:36.872Z,16.90
2022-09-03T17:54:23.037Z,16.90
2022-09-03T17:57:30.929Z,16.80
2022-09-03T18:00:07.695Z,16.50
2022-09-03T18:02:37.735Z,16.40
2022-09-03T18:05:31.167Z,16.40
2022-09-03T18:08:00.920Z,16.30
2022-09-03T18:10:36.589Z,16.20
2022-09-03T18:13:24.683Z,16.10
2022-09-03T18:15:55.731Z,16.10
2022-09-03T18:18:30.495Z,16.00
2022-09-03T18:21:30.864Z,16.10
2022-09-03T18:24:36.457Z,16.10
2022-09-03T18:27:31.244Z,16.00
2022-09-03T18:30:21.021Z,16.00
2022-09-03T18:33:07.148Z,15.90
2022-09-03T18:35:52.935Z,15.90
2022-09-03T18:38:44.851Z,15.90
2022-09-03T18:41:42.826Z,15.90
2022-09-03T18:44:35.049Z,15.80
2022-09-03T18:51:00.167Z,15.60
2022-09-03T18:54:26.937Z,15.50
2022-09-03T18:57:12.950Z,15.40
2022-09-03T19:00:28.590Z,15.30
2022-09-03T19:03:19.578Z,15.30
2022-09-03T19:06:43.784Z,15.40
2022-09-03T19:09:45.023Z,15.40
2022-09-03T19:12:59.347Z,15.30
2022-09-03T19:16:09.706Z,15.30
2022-09-03T19:19:33.044Z,15.30
2022-09-03T19:22:31.675Z,15.30
2022-09-03T19:25:27.930Z,15.30
2022-09-03T19:28:34.999Z,15.10
2022-09-03T19:31:58.560Z,15.10
2022-09-03T19:35:15.146Z,15.10
2022-09-03T19:38:26.631Z,15.10
2022-09-03T19:41:34.217Z,15.10
2022-09-03T19:44:56.735Z,15.10
2022-09-03T19:47:56.193Z,15.10
2022-09-03T19:50:47.989Z,15.10
2022-09-03T19:53:36.158Z,15.00
2022-09-03T19:56:44.486Z,15.00
2022-09-03T19:59:37.765Z,14.90
2022-09-03T20:02:23.636Z,14.80
2022-09-03T20:05:17.955Z,14.80
2022-09-03T20:08:09.208Z,14.90
2022-09-03T20:10:36.669Z,14.80
2022-09-03T20:13:13.526Z,14.80
2022-09-03T20:15:40.803Z,14.80
2022-09-03T20:18:34.926Z,14.80
2022-09-03T20:21:07.951Z,14.80
2022-09-03T20:23:57.397Z,14.80
2022-09-03T20:26:45.621Z,14.80
2022-09-03T20:29:15.853Z,14.80
2022-09-03T20:32:09.763Z,14.80
2022-09-03T20:34:56.231Z,14.80
2022-09-03T20:37:42.458Z,14.80
2022-09-03T20:40:36.352Z,14.70
2022-09-03T20:43:13.902Z,14.80
2022-09-03T20:45:50.137Z,14.70
2022-09-03T20:48:26.940Z,14.50
2022-09-03T20:51:16.028Z,14.50
2022-09-03T20:53:46.346Z,14.60
2022-09-03T20:56:26.792Z,14.60
2022-09-03T20:59:31.627Z,14.60
2022-09-03T21:02:25.835Z,14.50
2022-09-03T21:05:06.276Z,14.50
2022-09-03T21:07:40.172Z,14.50
2022-09-03T21:10:32.453Z,14.50
2022-09-03T21:13:28.187Z,14.50
2022-09-03T21:16:15.237Z,14.50
2022-09-03T21:19:08.982Z,14.40
2022-09-03T21:21:40.348Z,14.40
2022-09-03T21:24:20.664Z,14.30
2022-09-03T21:26:53.626Z,14.40
2022-09-03T21:29:28.339Z,14.30
2022-09-03T21:32:13.746Z,14.40
2022-09-03T21:34:43.454Z,14.40
2022-09-03T21:37:11.783Z,14.40
2022-09-03T21:39:55.753Z,14.40
2022-09-03T21:42:52.902Z,14.40
2022-09-03T21:45:34.455Z,14.30
2022-09-03T21:48:18.266Z,14.30
2022-09-03T21:50:56.498Z,14.30
2022-09-03T21:53:50.287Z,14.30
2022-09-03T21:56:46.743Z,14.30
2022-09-03T21:59:39.558Z,14.30
2022-09-03T22:02:08.709Z,14.30
2022-09-03T22:04:36.030Z,14.30
2022-09-03T22:07:21.981Z,14.30
2022-09-03T22:10:07.882Z,14.20
2022-09-03T22:13:00.824Z,14.20
2022-09-03T22:15:28.307Z,14.20
2022-09-03T22:18:02.790Z,14.20
2022-09-03T22:20:30.008Z,14.20
2022-09-03T22:23:03.784Z,14.20
2022-09-03T22:26:00.517Z,14.20
2022-09-03T22:28:40.658Z,14.20
2022-09-03T22:31:41.474Z,14.20
2022-09-03T22:34:41.059Z,14.20
2022-09-03T22:37:26.712Z,14.20
2022-09-03T22:39:56.309Z,14.20
2022-09-03T22:42:36.854Z,14.20
2022-09-03T22:45:20.927Z,14.20
2022-09-03T22:47:54.203Z,14.20
2022-09-03T22:50:28.918Z,14.20
2022-09-03T22:53:18.148Z,14.20
2022-09-03T22:56:22.336Z,14.20
2022-09-03T22:58:55.674Z,14.20
2022-09-03T23:01:25.858Z,14.20
2022-09-03T23:03:58.561Z,14.20
2022-09-03T23:06:50.996Z,14.10
2022-09-03T23:09:22.106Z,14.00
2022-09-03T23:12:00.871Z,14.00
2022-09-03T23:14:34.196Z,14.00
2022-09-03T23:17:13.285Z,14.00
2022-09-03T23:19:51.880Z,14.00
2022-09-03T23:22:34.127Z,14.00
2022-09-03T23:25:14.652Z,14.00
2022-09-03T23:28:15.678Z,14.00
2022-09-03T23:30:42.971Z,14.00
2022-09-03T23:33:10.224Z,14.00
2022-09-03T23:36:03.158Z,13.90
2022-09-03T23:38:53.639Z,13.80
2022-09-03T23:41:27.514Z,13.90
2022-09-03T23:44:13.331Z,13.90
2022-09-03T23:47:00.702Z,13.90
2022-09-03T23:49:36.618Z,13.90
2022-09-03T23:52:12.878Z,13.90
2022-09-03T23:54:55.999Z,13.90
2022-09-03T23:57:25.435Z,13.80
